Weather at Lucena Airport

Public forecast

Using degrees Celsius for public forecast. Weather courtesy of forecast.io.

Closest aviation weather report (METAR) to Lucena Airport

Closest report is Ninoy Aquino International Airport, 48.4 nm (89.7 km) NW. Retrieved 2020/10/27 19:00 UTC (57 minutes ago):

RPLL 271900Z 07002KT 9999 FEW025 SCT250 26/24 Q1010 NOSIG RMK A2983

Closest aviation forecast (TAF) to Lucena Airport

Closest forecast is Ninoy Aquino International Airport, 48.4 nm (89.7 km) NW. Retrieved 2020/10/27 18:00 UTC (2 hours ago):

TAF RPLL 271700Z 2718/2824 11006KT 9999 FEW025 BKN300 TX32/2806Z TN26/2721Z TEMPO 2718/2724 FEW023 BKN100 TEMPO 2806/2812 14010KT -SHRA FEW022CB SCT023 BKN090